Time;durP1;ratioP1;P1;durP2;ratioP2;P2;SDS_P1;SDS_P2;PMS_P1;PMS_P2;Temp;Humidity;BMP_temperature;BMP_pressure;BME280_temperature;BME280_humidity;BME280_pressure;Samples;Min_cycle;Max_cycle;Signal;HPM_P1;HPM_P2
2022/11/26 00:02:20;;;;;;;0.00;0.00;;;;;;;8.18;100.00;101161.56;6183679;23;20365;-78
2022/11/26 00:04:46;;;;;;;0.00;0.00;;;;;;;8.16;100.00;101158.25;6206507;23;20786;-76
2022/11/26 00:07:17;;;;;;;0.00;0.00;;;;;;;8.18;100.00;101167.03;6212848;23;20009;-78
2022/11/26 00:09:43;;;;;;;0.00;0.00;;;;;;;8.12;100.00;101154.34;6208649;23;20005;-77
2022/11/26 00:12:18;;;;;;;0.00;0.00;;;;;;;8.20;100.00;101164.06;6185829;23;20062;-78
2022/11/26 00:14:46;;;;;;;0.00;0.00;;;;;;;8.18;100.00;101161.56;6210844;23;20127;-77
2022/11/26 00:17:12;;;;;;;0.00;0.00;;;;;;;8.20;100.00;101166.78;6213685;23;20015;-75
2022/11/26 00:19:51;;;;;;;0.00;0.00;;;;;;;8.18;100.00;101169.75;6207447;23;20432;-76
2022/11/26 00:22:30;;;;;;;0.00;0.00;;;;;;;8.19;100.00;101174.16;6208339;23;20015;-74
2022/11/26 00:24:56;;;;;;;0.00;0.00;;;;;;;8.13;100.00;101158.72;6209568;23;20063;-76
2022/11/26 00:27:26;;;;;;;0.00;0.00;;;;;;;8.16;100.00;101168.31;6208442;23;20004;-74
2022/11/26 00:29:52;;;;;;;0.00;0.00;;;;;;;8.16;100.00;101174.63;6203477;23;20374;-74
2022/11/26 00:32:20;;;;;;;0.00;0.00;;;;;;;8.14;100.00;101171.28;6210553;23;20011;-74
2022/11/26 00:34:46;;;;;;;0.00;0.00;;;;;;;8.09;100.00;101175.75;6203530;23;20086;-76
2022/11/26 00:37:23;;;;;;;0.00;0.00;;;;;;;8.05;100.00;101169.94;6161663;23;20583;-76
2022/11/26 00:39:49;;;;;;;0.00;0.00;;;;;;;8.00;100.00;101172.50;6205946;23;20004;-76
2022/11/26 00:42:15;;;;;;;0.00;0.00;;;;;;;8.02;100.00;101178.59;6184338;23;20474;-74
2022/11/26 00:44:41;;;;;;;0.10;0.10;;;;;;;7.96;100.00;101179.50;6179937;23;20013;-75
2022/11/26 00:47:08;;;;;;;0.00;0.00;;;;;;;7.95;100.00;101177.84;6209369;23;20085;-75
2022/11/26 00:49:33;;;;;;;0.10;0.10;;;;;;;7.91;100.00;101177.44;6210517;23;20008;-75
2022/11/26 00:51:59;;;;;;;0.00;0.00;;;;;;;7.84;100.00;101176.69;6206360;23;20312;-76
2022/11/26 00:54:25;;;;;;;0.00;0.00;;;;;;;7.79;100.00;101166.50;6209018;23;20066;-76
2022/11/26 00:56:50;;;;;;;0.00;0.00;;;;;;;7.74;100.00;101163.66;6205101;23;20427;-76
2022/11/26 00:59:21;;;;;;;0.10;0.10;;;;;;;7.76;100.00;101175.13;6210557;23;20104;-76
2022/11/26 01:01:47;;;;;;;0.00;0.00;;;;;;;7.74;100.00;101182.72;6204494;23;20028;-76
2022/11/26 01:04:13;;;;;;;0.00;0.00;;;;;;;7.65;100.00;101178.63;6209634;23;20003;-76
2022/11/26 01:06:42;;;;;;;0.00;0.00;;;;;;;7.64;100.00;101188.69;6182751;23;20005;-74
2022/11/26 01:09:16;;;;;;;0.10;0.10;;;;;;;7.61;100.00;101193.78;6206083;23;20008;-75
2022/11/26 01:11:41;;;;;;;0.03;0.03;;;;;;;7.55;100.00;101187.34;6209680;23;20008;-74
2022/11/26 01:14:14;;;;;;;0.10;0.10;;;;;;;7.53;100.00;101180.44;6156121;23;20323;-75
2022/11/26 01:16:41;;;;;;;0.08;0.08;;;;;;;7.54;100.00;101187.56;6210461;23;20007;-76
2022/11/26 01:19:10;;;;;;;0.00;0.00;;;;;;;7.48;100.00;101190.13;6206045;23;20390;-75
2022/11/26 01:21:36;;;;;;;0.10;0.10;;;;;;;7.45;100.00;101196.03;6183770;23;20009;-75
2022/11/26 01:24:01;;;;;;;0.10;0.10;;;;;;;7.36;100.00;101178.34;6209193;23;20078;-75
2022/11/26 01:26:31;;;;;;;0.00;0.00;;;;;;;7.32;100.00;101172.50;6208315;23;20036;-74
2022/11/26 01:28:57;;;;;;;0.00;0.00;;;;;;;7.31;100.00;101186.34;6210393;23;20437;-75
2022/11/26 01:31:27;;;;;;;0.08;0.08;;;;;;;7.27;100.00;101194.13;6208108;23;20035;-75
2022/11/26 01:33:53;;;;;;;0.00;0.00;;;;;;;7.20;100.00;101192.50;6212788;23;20004;-75
2022/11/26 01:36:21;;;;;;;0.00;0.00;;;;;;;7.16;100.00;101198.41;6208635;23;20001;-75
2022/11/26 01:38:47;;;;;;;0.00;0.00;;;;;;;7.11;100.00;101186.53;6206599;23;20333;-75
2022/11/26 01:41:27;;;;;;;0.00;0.00;;;;;;;7.07;100.00;101191.59;6210600;23;20105;-75
2022/11/26 01:43:56;;;;;;;0.10;0.10;;;;;;;7.02;100.00;101183.25;6208931;23;20043;-76
2022/11/26 01:46:21;;;;;;;0.00;0.00;;;;;;;7.03;100.00;101175.97;6208889;23;20004;-75
2022/11/26 01:48:49;;;;;;;0.00;0.00;;;;;;;7.01;100.00;101178.91;6204327;23;20004;-75
2022/11/26 01:51:22;;;;;;;0.00;0.00;;;;;;;7.08;100.00;101185.13;6212136;23;20000;-75
2022/11/26 01:53:55;;;;;;;0.10;0.10;;;;;;;7.03;100.00;101181.41;6206780;23;20000;-75
2022/11/26 01:56:30;;;;;;;0.00;0.00;;;;;;;7.03;100.00;101178.69;6207576;23;20009;-76
2022/11/26 01:59:11;;;;;;;;;;;;;;;6.99;100.00;101178.28;6203629;23;20051;-75
2022/11/26 02:01:37;;;;;;;0.00;0.00;;;;;;;6.93;100.00;101171.03;6208624;23;19915;-74
2022/11/26 02:04:17;;;;;;;0.00;0.00;;;;;;;6.95;100.00;101179.78;6206373;23;20379;-74
2022/11/26 02:06:45;;;;;;;0.20;0.20;;;;;;;6.93;100.00;101176.47;6208277;23;20005;-75
2022/11/26 02:09:11;;;;;;;0.00;0.00;;;;;;;6.97;100.00;101189.38;6202115;23;19997;-74
2022/11/26 02:11:37;;;;;;;0.10;0.10;;;;;;;6.95;100.00;101190.66;6208454;23;20008;-75
2022/11/26 02:14:25;;;;;;;0.00;0.00;;;;;;;6.85;100.00;101179.44;6206873;23;20464;-75
2022/11/26 02:16:54;;;;;;;0.00;0.00;;;;;;;6.94;100.00;101189.00;6208499;23;20009;-74
2022/11/26 02:19:38;;;;;;;0.00;0.00;;;;;;;6.94;100.00;101194.44;6205512;23;20077;-75
2022/11/26 02:22:09;;;;;;;0.00;0.00;;;;;;;6.88;100.00;101189.88;6207531;23;20035;-75
2022/11/26 02:24:57;;;;;;;0.00;0.00;;;;;;;6.82;100.00;101192.44;6206203;23;20036;-75
2022/11/26 02:27:53;;;;;;;0.00;0.00;;;;;;;6.78;100.00;101196.66;6165940;23;20016;-76
2022/11/26 02:30:19;;;;;;;0.00;0.00;;;;;;;6.79;100.00;101198.34;6206536;23;20087;-74
2022/11/26 02:32:58;;;;;;;0.00;0.00;;;;;;;6.85;100.00;101193.03;6182755;23;20039;-76
2022/11/26 02:35:44;;;;;;;0.00;0.00;;;;;;;6.85;100.00;101184.88;6206187;23;20083;-74
2022/11/26 02:38:24;;;;;;;0.00;0.00;;;;;;;6.85;100.00;101179.44;6208081;23;20021;-75
2022/11/26 02:40:51;;;;;;;0.22;0.22;;;;;;;6.79;100.00;101181.16;6206938;23;20438;-75
2022/11/26 02:43:18;;;;;;;0.00;0.00;;;;;;;6.84;100.00;101192.22;6178217;23;20497;-74
2022/11/26 02:45:54;;;;;;;0.00;0.00;;;;;;;6.81;100.00;101196.22;6211313;23;20457;-75
2022/11/26 02:48:26;;;;;;;0.10;0.10;;;;;;;6.85;100.00;101195.75;6204948;23;19997;-75
2022/11/26 02:50:56;;;;;;;0.00;0.00;;;;;;;6.88;100.00;101195.31;6206760;23;20061;-74
2022/11/26 02:53:27;;;;;;;0.00;0.00;;;;;;;6.88;100.00;101185.28;6207249;23;20805;-75
2022/11/26 02:56:01;;;;;;;0.00;0.00;;;;;;;7.01;100.00;101183.50;6210191;23;20017;-75
2022/11/26 02:58:27;;;;;;;0.10;0.10;;;;;;;7.00;100.00;101166.34;6205040;23;20000;-74
2022/11/26 03:00:58;;;;;;;0.00;0.00;;;;;;;6.93;100.00;101160.97;6181659;23;20031;-75
2022/11/26 03:03:28;;;;;;;0.00;0.00;;;;;;;6.85;100.00;101168.56;6205068;23;20005;-75
2022/11/26 03:05:58;;;;;;;0.00;0.00;;;;;;;6.79;100.00;101165.72;6205532;23;20348;-75
2022/11/26 03:08:25;;;;;;;0.05;0.05;;;;;;;6.79;100.00;101176.59;6204196;23;20013;-74
2022/11/26 03:10:51;;;;;;;0.00;0.00;;;;;;;6.74;100.00;101181.84;6210874;23;20004;-75
2022/11/26 03:13:16;;;;;;;0.00;0.00;;;;;;;6.73;100.00;101193.78;6155332;23;20013;-74
2022/11/26 03:15:43;;;;;;;0.00;0.00;;;;;;;6.70;100.00;101180.66;6211857;23;20031;-75
2022/11/26 03:18:09;;;;;;;0.00;0.00;;;;;;;6.76;100.00;101187.06;6184263;23;20029;-75
2022/11/26 03:20:34;;;;;;;0.00;0.00;;;;;;;6.74;100.00;101179.13;6182012;23;20076;-75
2022/11/26 03:22:59;;;;;;;0.00;0.00;;;;;;;6.72;100.00;101175.81;6208639;23;20004;-74
2022/11/26 03:25:25;;;;;;;0.00;0.00;;;;;;;6.72;100.00;101178.53;6156092;23;20056;-75
2022/11/26 03:27:50;;;;;;;0.00;0.00;;;;;;;6.73;100.00;101177.47;6182739;23;20008;-74
2022/11/26 03:30:16;;;;;;;0.00;0.00;;;;;;;6.73;100.00;101180.19;6205477;23;20058;-74
2022/11/26 03:32:41;;;;;;;0.10;0.10;;;;;;;6.75;100.00;101182.69;6209725;23;20051;-74
2022/11/26 03:35:07;;;;;;;0.00;0.00;;;;;;;6.73;100.00;101176.63;6183655;23;20009;-74
2022/11/26 03:37:33;;;;;;;0.00;0.00;;;;;;;6.70;100.00;101177.94;6154642;23;20020;-74
2022/11/26 03:39:58;;;;;;;0.00;0.00;;;;;;;6.75;100.00;101180.78;6204679;23;20039;-74
2022/11/26 03:42:23;;;;;;;0.00;0.00;;;;;;;6.72;100.00;101166.84;6156574;23;20363;-75
2022/11/26 03:44:49;;;;;;;0.00;0.00;;;;;;;6.78;100.00;101177.63;6184205;23;20008;-75
2022/11/26 03:47:14;;;;;;;0.00;0.00;;;;;;;6.78;100.00;101172.19;6208747;23;20381;-74
2022/11/26 03:49:40;;;;;;;0.00;0.00;;;;;;;6.75;100.00;101175.34;6156255;23;20016;-75
2022/11/26 03:52:05;;;;;;;0.00;0.00;;;;;;;6.72;100.00;101170.38;6160622;23;20677;-76
2022/11/26 03:54:31;;;;;;;0.00;0.00;;;;;;;6.73;100.00;101169.31;6209015;23;20416;-73
2022/11/26 03:56:56;;;;;;;0.00;0.00;;;;;;;6.79;100.00;101165.72;6209163;23;20019;-75
2022/11/26 03:59:21;;;;;;;0.00;0.00;;;;;;;6.85;100.00;101157.69;6180300;23;20043;-74
2022/11/26 04:01:47;;;;;;;0.00;0.00;;;;;;;6.95;100.00;101163.47;6185005;23;20039;-74
2022/11/26 04:04:12;;;;;;;0.00;0.00;;;;;;;7.09;100.00;101165.00;6183074;23;20004;-74
2022/11/26 04:06:38;;;;;;;0.00;0.00;;;;;;;7.16;100.00;101165.75;6202963;23;20013;-74
2022/11/26 04:09:03;;;;;;;0.00;0.00;;;;;;;7.22;100.00;101165.94;6234033;23;20023;-74
2022/11/26 04:11:29;;;;;;;0.00;0.00;;;;;;;7.27;100.00;101171.50;6201949;23;20044;-74
2022/11/26 04:13:54;;;;;;;0.00;0.00;;;;;;;7.29;100.00;101174.84;6207410;23;20019;-73
2022/11/26 04:16:20;;;;;;;0.00;0.00;;;;;;;7.30;100.00;101162.91;6177500;23;20004;-72
2022/11/26 04:18:46;;;;;;;0.00;0.00;;;;;;;7.28;100.00;101156.88;6233132;23;20012;-75
2022/11/26 04:21:11;;;;;;;6.07;5.47;;;;;;;7.34;100.00;101158.66;6207874;23;20012;-74
2022/11/26 04:23:37;;;;;;;0.00;0.00;;;;;;;7.34;100.00;101166.84;6204014;23;20683;-75
2022/11/26 04:26:03;;;;;;;0.00;0.00;;;;;;;7.36;100.00;101170.19;6235446;23;20005;-75
2022/11/26 04:28:28;;;;;;;0.00;0.00;;;;;;;7.38;100.00;101173.50;6204306;23;20008;-74
2022/11/26 04:30:53;;;;;;;0.00;0.00;;;;;;;7.39;100.00;101180.59;6184660;23;20420;-74
2022/11/26 04:33:19;;;;;;;0.00;0.00;;;;;;;7.41;100.00;101175.75;6204269;23;20011;-74
2022/11/26 04:35:45;;;;;;;0.10;0.10;;;;;;;7.47;100.00;101172.13;6184829;23;20013;-74
2022/11/26 04:38:10;;;;;;;0.10;0.10;;;;;;;7.54;100.00;101177.50;6209580;23;20016;-74
2022/11/26 04:40:36;;;;;;;0.00;0.00;;;;;;;7.57;100.00;101184.38;6203156;23;20020;-75
2022/11/26 04:43:01;;;;;;;0.08;0.08;;;;;;;7.48;100.00;101172.97;6209054;23;20005;-74
2022/11/26 04:45:27;;;;;;;0.00;0.00;;;;;;;7.45;100.00;101170.72;6180170;23;20111;-75
2022/11/26 04:47:53;;;;;;;0.00;0.00;;;;;;;7.44;100.00;101178.03;6206867;23;20000;-74
2022/11/26 04:50:18;;;;;;;0.00;0.00;;;;;;;7.39;100.00;101175.16;6182709;23;20039;-74
2022/11/26 04:52:47;;;;;;;0.00;0.00;;;;;;;7.35;100.00;101184.84;6204536;23;20466;-75
2022/11/26 04:55:13;;;;;;;0.00;0.00;;;;;;;7.36;100.00;101175.63;6233367;23;20058;-74
2022/11/26 04:57:38;;;;;;;0.00;0.00;;;;;;;7.35;100.00;101168.50;6203925;23;20013;-74
2022/11/26 05:00:05;;;;;;;0.00;0.00;;;;;;;7.36;100.00;101178.34;6159048;23;20044;-74
2022/11/26 05:02:31;;;;;;;0.00;0.00;;;;;;;7.35;100.00;101173.94;6209933;23;20012;-74
2022/11/26 05:04:56;;;;;;;0.00;0.00;;;;;;;7.44;100.00;101183.47;6152592;23;20424;-76
2022/11/26 05:07:21;;;;;;;0.00;0.00;;;;;;;7.46;100.00;101184.09;6208284;23;20478;-75
2022/11/26 05:09:47;;;;;;;0.00;0.00;;;;;;;7.45;100.00;101157.94;6202654;23;20042;-74
2022/11/26 05:12:12;;;;;;;0.00;0.00;;;;;;;7.55;100.00;101172.88;6208893;23;20419;-75
2022/11/26 05:14:38;;;;;;;0.00;0.00;;;;;;;7.60;100.00;101164.88;6179143;23;20012;-74
2022/11/26 05:17:03;;;;;;;0.00;0.00;;;;;;;7.60;100.00;101164.88;6206694;23;20357;-75
2022/11/26 05:19:28;;;;;;;0.00;0.00;;;;;;;7.55;100.00;101167.44;6160368;23;20008;-76
2022/11/26 05:21:54;;;;;;;0.00;0.00;;;;;;;7.51;100.00;101167.91;6203267;23;20012;-76
2022/11/26 05:24:19;;;;;;;0.00;0.00;;;;;;;7.50;100.00;101171.69;6184445;23;20031;-76
2022/11/26 05:26:45;;;;;;;0.00;0.00;;;;;;;7.51;100.00;101167.91;6179242;23;20461;-76
2022/11/26 05:29:11;;;;;;;0.00;0.00;;;;;;;7.59;100.00;101169.47;6184682;23;20680;-75
2022/11/26 05:31:36;;;;;;;0.00;0.00;;;;;;;7.66;100.00;101163.97;6180082;23;20095;-76
2022/11/26 05:34:02;;;;;;;0.00;0.00;;;;;;;7.70;100.00;101165.16;6208642;23;20039;-76
2022/11/26 05:36:27;;;;;;;0.00;0.00;;;;;;;7.76;100.00;101168.88;6207440;23;20007;-74
2022/11/26 05:38:52;;;;;;;0.00;0.00;;;;;;;7.79;100.00;101165.69;6202264;23;20020;-75
2022/11/26 05:41:18;;;;;;;0.00;0.00;;;;;;;7.75;100.00;101162.56;6207413;23;20015;-76
2022/11/26 05:43:43;;;;;;;0.00;0.00;;;;;;;7.78;100.00;101167.59;6154030;23;20047;-75
2022/11/26 05:46:10;;;;;;;0.00;0.00;;;;;;;7.78;100.00;101172.19;6205778;23;20008;-76
2022/11/26 05:48:35;;;;;;;0.00;0.00;;;;;;;7.80;100.00;101175.53;6182711;23;20031;-76
2022/11/26 05:51:02;;;;;;;1.65;1.50;;;;;;;7.83;100.00;101184.06;6178386;23;20444;-75
2022/11/26 05:53:29;;;;;;;0.00;0.00;;;;;;;7.75;100.00;101173.47;6207629;23;20008;-75
2022/11/26 05:55:55;;;;;;;0.00;0.00;;;;;;;7.68;100.00;101172.72;6206796;23;20031;-75
2022/11/26 05:58:20;;;;;;;0.00;0.00;;;;;;;7.60;100.00;101164.88;6181959;23;20016;-75
2022/11/26 06:00:45;;;;;;;0.00;0.00;;;;;;;7.51;100.00;101167.06;6209803;23;20067;-75
2022/11/26 06:03:11;;;;;;;0.00;0.00;;;;;;;7.42;100.00;101158.38;6202936;23;20036;-75
2022/11/26 06:05:36;;;;;;;0.00;0.00;;;;;;;7.34;100.00;101140.47;6208667;23;20088;-76
2022/11/26 06:08:02;;;;;;;0.00;0.00;;;;;;;7.30;100.00;101147.44;6154316;23;20111;-76
2022/11/26 06:10:27;;;;;;;0.10;0.10;;;;;;;7.29;100.00;101147.66;6183418;23;20324;-76
2022/11/26 06:12:53;;;;;;;2.78;2.42;;;;;;;7.24;100.00;101139.31;6155281;23;20088;-75
2022/11/26 06:15:18;;;;;;;0.10;0.10;;;;;;;7.21;100.00;101143.31;6182099;23;20075;-76
2022/11/26 06:17:44;;;;;;;0.00;0.00;;;;;;;7.23;100.00;101137.66;6208430;23;20430;-75
2022/11/26 06:20:10;;;;;;;0.00;0.00;;;;;;;7.21;100.00;101134.34;6178658;23;20094;-75
2022/11/26 06:22:41;;;;;;;0.03;0.03;;;;;;;7.08;100.00;101125.28;6207995;23;20551;-75
2022/11/26 06:25:08;;;;;;;0.00;0.00;;;;;;;7.15;100.00;101158.69;6201234;23;20005;-74
2022/11/26 06:27:34;;;;;;;0.00;0.00;;;;;;;7.14;100.00;101146.13;6209867;23;20054;-75
2022/11/26 06:30:00;;;;;;;0.00;0.00;;;;;;;7.16;100.00;101146.72;6203900;23;20008;-75
2022/11/26 06:32:28;;;;;;;0.03;0.03;;;;;;;7.12;100.00;101153.66;6183373;23;20008;-75
2022/11/26 06:34:54;;;;;;;0.10;0.10;;;;;;;7.10;100.00;101152.25;6206930;23;20000;-74
2022/11/26 06:37:19;;;;;;;0.00;0.00;;;;;;;7.24;100.00;101158.38;6205493;23;20339;-75
2022/11/26 06:39:45;;;;;;;0.00;0.00;;;;;;;7.35;100.00;101165.78;6207983;23;20005;-74
2022/11/26 06:42:12;;;;;;;0.00;0.00;;;;;;;7.46;100.00;101181.38;6151850;23;20339;-75
2022/11/26 06:44:38;;;;;;;0.00;0.00;;;;;;;7.55;100.00;101173.72;6183172;23;20066;-74
2022/11/26 06:47:03;;;;;;;0.00;0.00;;;;;;;7.59;100.00;101157.75;6178797;23;20012;-74
2022/11/26 06:49:29;;;;;;;0.00;0.00;;;;;;;7.64;100.00;101155.19;6209780;23;20009;-74
2022/11/26 06:51:54;;;;;;;0.00;0.00;;;;;;;7.66;100.00;101159.34;6200985;23;20000;-74
2022/11/26 06:54:20;;;;;;;0.00;0.00;;;;;;;7.62;100.00;101135.53;6232015;23;20005;-74
2022/11/26 06:56:45;;;;;;;0.00;0.00;;;;;;;7.61;100.00;101139.31;6181729;23;20001;-75
2022/11/26 06:59:11;;;;;;;0.00;0.00;;;;;;;7.66;100.00;101148.44;6201279;23;20016;-76
2022/11/26 07:01:37;;;;;;;0.00;0.00;;;;;;;7.62;100.00;101146.41;6207765;23;20012;-75
2022/11/26 07:04:03;;;;;;;0.00;0.00;;;;;;;7.62;100.00;101139.09;6205217;23;20008;-74
2022/11/26 07:06:31;;;;;;;0.00;0.00;;;;;;;7.63;100.00;101134.47;6203732;23;20463;-75
2022/11/26 07:09:01;;;;;;;0.00;0.00;;;;;;;7.62;100.00;101136.38;6206424;23;20015;-75
2022/11/26 07:11:27;;;;;;;0.00;0.00;;;;;;;7.61;100.00;101129.25;6205979;23;20028;-74
2022/11/26 07:13:56;;;;;;;0.05;0.05;;;;;;;7.67;100.00;101150.13;6155885;23;20423;-75
2022/11/26 07:16:22;;;;;;;0.00;0.00;;;;;;;7.66;100.00;101153.88;6206036;23;20014;-75
2022/11/26 07:18:52;;;;;;;0.00;0.00;;;;;;;7.66;100.00;101153.06;6206600;23;20079;-75
2022/11/26 07:21:18;;;;;;;0.00;0.00;;;;;;;7.61;100.00;101126.53;6205592;23;20004;-77
2022/11/26 07:23:45;;;;;;;0.00;0.00;;;;;;;7.72;100.00;101124.91;6159109;23;20088;-76
2022/11/26 07:26:14;;;;;;;0.00;0.00;;;;;;;7.69;100.00;101125.38;6205953;23;20059;-75
2022/11/26 07:28:40;;;;;;;0.00;0.00;;;;;;;7.69;100.00;101114.50;6206852;23;20015;-79
2022/11/26 07:31:14;;;;;;;0.00;0.00;;;;;;;7.72;100.00;101124.91;6182836;23;20032;-75
2022/11/26 07:33:39;;;;;;;0.00;0.00;;;;;;;7.60;100.00;101102.28;6208574;23;20096;-77
2022/11/26 07:36:15;;;;;;;0.00;0.00;;;;;;;7.56;100.00;101109.22;6229304;23;20036;-77
2022/11/26 07:38:40;;;;;;;0.00;0.00;;;;;;;7.51;100.00;101115.38;6209131;23;20047;-75
2022/11/26 07:41:11;;;;;;;0.00;0.00;;;;;;;7.54;100.00;101114.09;6152736;23;20012;-76
2022/11/26 07:43:42;;;;;;;0.00;0.00;;;;;;;7.49;100.00;101110.16;6206495;23;20693;-76
2022/11/26 07:46:11;;;;;;;0.00;0.00;;;;;;;7.51;100.00;101099.03;6206150;23;20459;-75
2022/11/26 07:48:38;;;;;;;0.00;0.00;;;;;;;7.56;100.00;101098.34;6206216;23;20008;-76
2022/11/26 07:51:05;;;;;;;0.00;0.00;;;;;;;7.51;100.00;101102.56;6203887;23;20015;-76
2022/11/26 07:53:34;;;;;;;0.05;0.05;;;;;;;7.53;100.00;101098.81;6207829;23;19997;-75
2022/11/26 07:56:04;;;;;;;0.00;0.00;;;;;;;7.49;100.00;101106.56;6181037;23;20009;-75
2022/11/26 07:58:29;;;;;;;0.00;0.00;;;;;;;7.49;100.00;101115.59;6209601;23;20005;-75
2022/11/26 08:00:55;;;;;;;0.00;0.00;;;;;;;7.50;100.00;101119.97;6155846;23;20058;-75
2022/11/26 08:03:20;;;;;;;0.00;0.00;;;;;;;7.53;100.00;101120.56;6181911;23;20012;-75
2022/11/26 08:05:54;;;;;;;0.00;0.00;;;;;;;7.57;100.00;101130.78;6185245;23;20418;-77
2022/11/26 08:08:22;;;;;;;0.00;0.00;;;;;;;7.57;100.00;101122.59;6204493;23;20100;-76
2022/11/26 08:10:52;;;;;;;0.00;0.00;;;;;;;7.60;100.00;101126.78;6161895;23;20443;-75
2022/11/26 08:13:20;;;;;;;0.00;0.00;;;;;;;7.64;100.00;101123.34;6211768;23;20001;-77
2022/11/26 08:15:48;;;;;;;0.00;0.00;;;;;;;7.65;100.00;101118.72;6204546;23;20016;-79
2022/11/26 08:18:13;;;;;;;3.50;0.70;;;;;;;7.70;100.00;101116.16;6206075;23;20509;-81
2022/11/26 08:20:39;;;;;;;0.00;0.00;;;;;;;7.78;100.00;101107.69;6209572;23;20004;-78
2022/11/26 08:23:22;;;;;;;0.00;0.00;;;;;;;7.89;100.00;101102.50;6203354;23;20054;-78
2022/11/26 08:25:48;;;;;;;0.00;0.00;;;;;;;7.92;100.00;101110.22;6204744;23;20043;-78
2022/11/26 08:28:14;;;;;;;0.00;0.00;;;;;;;7.96;100.00;101098.63;6174198;23;20328;-81
2022/11/26 08:30:39;;;;;;;0.10;0.10;;;;;;;8.03;100.00;101112.97;6182739;23;20015;-79
2022/11/26 08:33:05;;;;;;;0.05;0.05;;;;;;;8.02;100.00;101119.47;6208307;23;20061;-80
2022/11/26 08:36:02;;;;;;;0.00;0.00;;;;;;;8.20;100.00;101123.19;6179218;23;20008;-80
2022/11/26 08:38:37;;;;;;;0.00;0.00;;;;;;;8.32;100.00;101126.78;6183914;23;20024;-80
2022/11/26 08:41:14;;;;;;;0.00;0.00;;;;;;;8.51;100.00;101124.84;6204792;23;20020;-80
2022/11/26 08:43:40;;;;;;;0.00;0.00;;;;;;;8.82;100.00;101136.47;6207666;23;20447;-75
2022/11/26 08:46:05;;;;;;;0.00;0.00;;;;;;;8.84;100.00;101115.25;6203905;23;20024;-79
2022/11/26 08:48:32;;;;;;;0.00;0.00;;;;;;;9.15;100.00;101115.94;6209715;23;20331;-79
2022/11/26 08:51:04;;;;;;;0.00;0.00;;;;;;;9.29;100.00;101110.19;6205009;23;20000;-77
2022/11/26 08:53:34;;;;;;;0.00;0.00;;;;;;;9.63;100.00;101096.72;6210329;23;20000;-78
2022/11/26 08:56:11;;;;;;;0.00;0.00;;;;;;;9.85;100.00;101118.72;6206838;23;20058;-79
2022/11/26 08:58:47;;;;;;;0.00;0.00;;;;;;;10.19;100.00;101125.09;6211532;23;20424;-78
2022/11/26 09:01:23;;;;;;;0.00;0.00;;;;;;;10.54;100.00;101124.06;6207124;23;20001;-78
2022/11/26 09:03:52;;;;;;;0.00;0.00;;;;;;;10.82;100.00;101103.16;6210068;23;20281;-78
2022/11/26 09:06:19;;;;;;;0.00;0.00;;;;;;;11.22;100.00;101115.75;6204383;23;20970;-78
2022/11/26 09:11:32;;;;;;;0.00;0.00;;;;;;;11.42;100.00;101114.34;6184407;23;20020;-78
2022/11/26 09:13:58;;;;;;;0.00;0.00;;;;;;;11.61;100.00;101123.91;6183945;23;20423;-77
2022/11/26 09:16:27;;;;;;;0.00;0.00;;;;;;;11.67;100.00;101135.75;6206236;23;20009;-80
2022/11/26 09:18:56;;;;;;;0.00;0.00;;;;;;;11.63;100.00;101112.69;6207839;23;20012;-77
2022/11/26 09:21:22;;;;;;;0.00;0.00;;;;;;;11.70;100.00;101110.56;6181154;23;20035;-77
2022/11/26 09:23:49;;;;;;;0.00;0.00;;;;;;;11.66;100.00;101126.69;6184770;23;20412;-77
2022/11/26 09:26:15;;;;;;;0.00;0.00;;;;;;;11.76;100.00;101125.16;6184971;23;20009;-79
2022/11/26 09:28:40;;;;;;;0.10;0.10;;;;;;;11.69;100.00;101120.69;6205323;23;20022;-76
2022/11/26 09:31:06;;;;;;;0.10;0.10;;;;;;;11.59;100.00;101109.59;6184111;23;20722;-79
2022/11/26 09:33:31;;;;;;;0.00;0.00;;;;;;;11.69;100.00;101109.72;6204444;23;20009;-78
2022/11/26 09:36:09;;;;;;;0.00;0.00;;;;;;;11.72;100.00;101115.78;6209620;23;20059;-78
2022/11/26 09:38:37;;;;;;;0.00;0.00;;;;;;;11.75;100.00;101113.34;6204565;23;20016;-78
2022/11/26 09:41:09;;;;;;;0.00;0.00;;;;;;;11.73;100.00;101110.06;6208155;23;20005;-80
2022/11/26 09:43:53;;;;;;;0.00;0.00;;;;;;;11.83;100.00;101131.28;6203861;23;20013;-78
2022/11/26 09:46:30;;;;;;;0.00;0.00;;;;;;;12.03;100.00;101131.53;6209334;23;20396;-78
2022/11/26 09:48:58;;;;;;;0.00;0.00;;;;;;;12.03;100.00;101109.59;6209674;23;20487;-77
2022/11/26 09:51:24;;;;;;;0.00;0.00;;;;;;;12.11;100.00;101121.19;6207224;23;19997;-78
2022/11/26 09:53:53;;;;;;;0.00;0.00;;;;;;;12.11;100.00;101122.00;6206985;23;20004;-78
2022/11/26 09:56:36;;;;;;;;;;;;;;;;;;;;;
2022/11/26 09:59:04;;;;;;;0.00;0.00;;;;;;;12.26;100.00;101118.56;6210763;23;20087;-78
2022/11/26 10:01:32;;;;;;;0.00;0.00;;;;;;;12.36;100.00;101117.84;6203857;23;20028;-78
2022/11/26 10:04:04;;;;;;;0.00;0.00;;;;;;;12.47;100.00;101119.59;6208996;23;20033;-79
2022/11/26 10:06:38;;;;;;;0.00;0.00;;;;;;;12.58;100.00;101124.03;6205358;23;20040;-78
2022/11/26 10:09:27;;;;;;;0.00;0.00;;;;;;;12.57;100.00;101118.81;6209369;23;20005;-77
2022/11/26 10:12:02;;;;;;;0.00;0.00;;;;;;;12.74;100.00;101114.00;6207873;23;20008;-76
2022/11/26 10:14:47;;;;;;;0.00;0.00;;;;;;;12.84;100.00;101124.22;6207758;23;20075;-76
2022/11/26 10:17:15;;;;;;;0.32;0.32;;;;;;;12.79;100.00;101109.66;6205889;23;20331;-76
2022/11/26 10:20:26;;;;;;;1.38;1.10;;;;;;;12.77;100.00;101111.84;6204775;23;20031;-76
2022/11/26 10:23:09;;;;;;;0.70;0.70;;;;;;;12.72;100.00;101110.72;6206658;23;20437;-77
2022/11/26 10:25:47;;;;;;;0.90;0.47;;;;;;;12.56;100.00;101111.69;6207510;23;21006;-76
2022/11/26 10:28:25;;;;;;;0.10;0.10;;;;;;;12.50;100.00;101096.25;6203132;23;20075;-77
2022/11/26 10:30:59;;;;;;;0.00;0.00;;;;;;;12.62;100.00;101102.41;6209074;23;20003;-77
2022/11/26 10:33:34;;;;;;;0.00;0.00;;;;;;;12.70;100.00;101101.09;6203478;23;20067;-77
2022/11/26 10:36:00;;;;;;;0.00;0.00;;;;;;;12.89;100.00;101104.22;6207714;23;20091;-76
2022/11/26 10:38:25;;;;;;;2.80;0.90;;;;;;;13.12;100.00;101099.41;6203287;23;20111;-78
2022/11/26 10:40:50;;;;;;;1.08;0.52;;;;;;;13.35;100.00;101110.00;6209019;23;20020;-77
2022/11/26 10:43:22;;;;;;;0.52;0.52;;;;;;;13.55;100.00;101083.69;6156588;23;20104;-78
2022/11/26 10:45:57;;;;;;;0.00;0.00;;;;;;;13.83;100.00;101100.81;6204977;23;20047;-77
2022/11/26 10:48:22;;;;;;;0.00;0.00;;;;;;;13.86;100.00;101094.78;6207767;23;20036;-77
2022/11/26 10:51:03;;;;;;;0.00;0.00;;;;;;;13.88;100.00;101092.59;6204206;23;20004;-78
2022/11/26 10:53:35;;;;;;;0.00;0.00;;;;;;;13.94;100.00;101083.25;6210779;23;20011;-78
2022/11/26 10:56:04;;;;;;;0.08;0.08;;;;;;;14.01;100.00;101083.78;6204517;23;20007;-77
2022/11/26 10:58:38;;;;;;;2.60;1.30;;;;;;;14.21;100.00;101076.69;6208486;23;20428;-79
2022/11/26 11:01:04;;;;;;;1.65;0.70;;;;;;;14.35;98.34;101079.69;6204839;23;20008;-79
2022/11/26 11:03:39;;;;;;;0.00;0.00;;;;;;;14.31;98.73;101076.69;6233254;23;20081;-78
2022/11/26 11:06:27;;;;;;;1.17;0.43;;;;;;;14.30;97.23;101077.78;6202994;23;20011;-77
2022/11/26 11:08:53;;;;;;;0.00;0.00;;;;;;;14.09;94.04;101087.91;6206802;23;20063;-78
2022/11/26 11:11:28;;;;;;;0.00;0.00;;;;;;;13.71;93.89;101079.91;6206359;23;20011;-78
2022/11/26 11:13:54;;;;;;;0.00;0.00;;;;;;;13.50;94.96;101086.44;6208271;23;20067;-78
2022/11/26 11:16:38;;;;;;;0.00;0.00;;;;;;;13.40;96.70;101057.84;6204321;23;20363;-78
2022/11/26 11:19:19;;;;;;;0.00;0.00;;;;;;;13.41;96.65;101059.47;6207932;23;20008;-78
2022/11/26 11:21:44;;;;;;;0.00;0.00;;;;;;;13.23;95.77;101065.44;6204923;23;20000;-79
2022/11/26 11:24:17;;;;;;;2.40;0.85;;;;;;;13.21;98.31;101053.88;6209313;23;20100;-76
2022/11/26 11:26:55;;;;;;;0.45;0.20;;;;;;;13.09;97.86;101060.41;6205228;23;20008;-77
2022/11/26 11:29:35;;;;;;;3.92;1.27;;;;;;;12.87;98.32;101059.75;6209909;23;20011;-77
2022/11/26 11:32:04;;;;;;;0.20;0.10;;;;;;;12.65;98.11;101049.75;6204465;23;20004;-78
2022/11/26 11:34:43;;;;;;;0.10;0.10;;;;;;;12.65;99.75;101044.25;6209141;23;19993;-78
2022/11/26 11:37:17;;;;;;;0.00;0.00;;;;;;;12.77;99.56;101060.50;6207918;23;20604;-78